Time;durP1;ratioP1;P1;durP2;ratioP2;P2;SDS_P1;SDS_P2;PMS_P1;PMS_P2;Temp;Humidity;BMP_temperature;BMP_pressure;BME280_temperature;BME280_humidity;BME280_pressure;Samples;Min_cycle;Max_cycle;Signal;HPM_P1;HPM_P2
2021/09/24 00:00:39;;;;;;;5.45;1.85;;;;;;;;;;143734;564;46010;-91
2021/09/24 00:03:07;;;;;;;4.47;2.55;;;;;;;;;;143730;582;47020;-90
2021/09/24 00:05:34;;;;;;;2.65;2.20;;;;;;;;;;143732;565;46010;-90
2021/09/24 00:08:00;;;;;;;1.80;1.50;;;;;;;;;;143733;639;47018;-89
2021/09/24 00:10:27;;;;;;;4.93;2.25;;;;;;;;;;143735;607;46010;-90
2021/09/24 00:12:54;;;;;;;3.00;2.33;;;;;;;;;;143732;566;47019;-89
2021/09/24 00:15:20;;;;;;;4.95;2.22;;;;;;;;;;143733;647;46010;-90
2021/09/24 00:17:47;;;;;;;6.57;2.35;;;;;;;;;;143735;565;46018;-90
2021/09/24 00:20:14;;;;;;;6.40;2.00;;;;;;;;;;143733;565;46022;-91
2021/09/24 00:22:41;;;;;;;4.57;2.25;;;;;;;;;;143732;632;46041;-90
2021/09/24 00:25:09;;;;;;;3.03;2.12;;;;;;;;;;143732;589;46012;-89
2021/09/24 00:27:36;;;;;;;3.35;2.08;;;;;;;;;;143734;569;47019;-88
2021/09/24 00:30:05;;;;;;;2.67;2.22;;;;;;;;;;143734;668;46010;-89
2021/09/24 00:32:32;;;;;;;1.90;1.75;;;;;;;;;;143734;723;46020;-87
2021/09/24 00:34:58;;;;;;;2.08;1.77;;;;;;;;;;143733;585;46023;-88
2021/09/24 00:37:25;;;;;;;8.95;2.08;;;;;;;;;;143733;569;46019;-89
2021/09/24 00:39:52;;;;;;;1.98;1.55;;;;;;;;;;143736;569;46022;-88
2021/09/24 00:42:19;;;;;;;2.70;2.05;;;;;;;;;;143732;646;46020;-89
2021/09/24 00:44:48;;;;;;;4.47;2.03;;;;;;;;;;143731;574;46010;-88
2021/09/24 00:47:19;;;;;;;3.10;2.60;;;;;;;;;;143734;576;46040;-89
2021/09/24 00:49:47;;;;;;;5.30;2.05;;;;;;;;;;143735;571;46010;-90
2021/09/24 00:52:14;;;;;;;2.30;2.05;;;;;;;;;;143733;565;46034;-88
2021/09/24 00:54:41;;;;;;;5.82;2.30;;;;;;;;;;143734;605;46012;-90
2021/09/24 00:57:08;;;;;;;5.18;2.75;;;;;;;;;;143734;583;46018;-92
2021/09/24 00:59:35;;;;;;;2.97;2.35;;;;;;;;;;143734;646;46020;-92
2021/09/24 01:02:01;;;;;;;7.53;2.70;;;;;;;;;;143734;572;46018;-91
2021/09/24 01:04:29;;;;;;;3.95;2.22;;;;;;;;;;143734;617;46022;-90
2021/09/24 01:06:55;;;;;;;3.90;2.50;;;;;;;;;;143734;572;46019;-91
2021/09/24 01:09:22;;;;;;;2.55;2.30;;;;;;;;;;143738;566;45022;-89
2021/09/24 01:11:49;;;;;;;4.75;2.35;;;;;;;;;;143732;595;46020;-89
2021/09/24 01:14:15;;;;;;;4.22;2.22;;;;;;;;;;143733;581;46053;-91
2021/09/24 01:16:42;;;;;;;3.42;2.60;;;;;;;;;;143735;565;46018;-91
2021/09/24 01:19:08;;;;;;;2.80;2.50;;;;;;;;;;143736;587;46011;-90
2021/09/24 01:21:36;;;;;;;2.65;2.45;;;;;;;;;;143732;598;47018;-89
2021/09/24 01:24:04;;;;;;;4.28;2.47;;;;;;;;;;143732;566;46010;-89
2021/09/24 01:26:30;;;;;;;9.82;2.58;;;;;;;;;;143734;564;46018;-89
2021/09/24 01:28:58;;;;;;;3.00;2.47;;;;;;;;;;143734;569;46010;-92
2021/09/24 01:31:25;;;;;;;3.53;2.22;;;;;;;;;;143730;564;47020;-90
2021/09/24 01:33:52;;;;;;;4.65;2.30;;;;;;;;;;143734;600;46010;-90
2021/09/24 01:36:19;;;;;;;2.37;2.08;;;;;;;;;;143734;662;46016;-91
2021/09/24 01:38:46;;;;;;;3.35;2.85;;;;;;;;;;143733;599;46010;-91
2021/09/24 01:41:12;;;;;;;3.83;2.75;;;;;;;;;;143732;566;46015;-89
2021/09/24 01:43:39;;;;;;;6.03;2.58;;;;;;;;;;143733;599;46022;-90
2021/09/24 01:46:06;;;;;;;3.37;2.80;;;;;;;;;;143733;587;46018;-91
2021/09/24 01:48:33;;;;;;;3.40;2.37;;;;;;;;;;143736;574;46010;-90
2021/09/24 01:50:59;;;;;;;3.42;2.40;;;;;;;;;;143732;609;47021;-92
2021/09/24 01:53:26;;;;;;;3.42;2.33;;;;;;;;;;143733;604;46010;-88
2021/09/24 01:55:53;;;;;;;5.62;2.55;;;;;;;;;;143734;611;46018;-89
2021/09/24 01:58:20;;;;;;;2.72;2.17;;;;;;;;;;143738;639;46020;-88
2021/09/24 02:00:46;;;;;;;5.15;2.37;;;;;;;;;;143732;598;47020;-90
2021/09/24 02:03:14;;;;;;;3.65;2.42;;;;;;;;;;143734;570;46022;-89
2021/09/24 02:05:41;;;;;;;4.50;2.20;;;;;;;;;;143735;595;46019;-88
2021/09/24 02:08:08;;;;;;;4.95;2.47;;;;;;;;;;143736;591;46010;-90
2021/09/24 02:10:35;;;;;;;3.42;2.47;;;;;;;;;;143736;592;46018;-89
2021/09/24 02:13:03;;;;;;;3.53;2.28;;;;;;;;;;143732;635;46010;-90
2021/09/24 02:15:31;;;;;;;3.45;2.30;;;;;;;;;;143735;565;46012;-90
2021/09/24 02:17:59;;;;;;;3.92;2.37;;;;;;;;;;143736;587;46022;-91
2021/09/24 02:20:29;;;;;;;2.58;2.25;;;;;;;;;;143734;577;47018;-89
2021/09/24 02:22:57;;;;;;;8.65;2.12;;;;;;;;;;143731;570;46022;-90
2021/09/24 02:25:26;;;;;;;2.78;2.12;;;;;;;;;;143733;600;46018;-89
2021/09/24 02:27:56;;;;;;;3.10;2.05;;;;;;;;;;143734;613;46010;-90
2021/09/24 02:31:00;;;;;;;;;;;;;;;;;;;;;
2021/09/24 02:33:28;;;;;;;4.45;1.85;;;;;;;;;;143735;586;46022;-89
2021/09/24 02:36:00;;;;;;;2.58;2.22;;;;;;;;;;143733;582;47018;-90
2021/09/24 02:38:26;;;;;;;2.80;2.37;;;;;;;;;;143736;700;46022;-91
2021/09/24 02:40:53;;;;;;;6.43;2.53;;;;;;;;;;143733;564;47020;-87
2021/09/24 02:43:22;;;;;;;3.17;2.25;;;;;;;;;;143733;674;46012;-88
2021/09/24 02:45:49;;;;;;;3.87;2.22;;;;;;;;;;143732;619;47018;-89
2021/09/24 02:48:15;;;;;;;3.47;2.33;;;;;;;;;;143735;592;46023;-91
2021/09/24 02:50:42;;;;;;;4.00;2.50;;;;;;;;;;143733;604;46018;-89
2021/09/24 02:53:10;;;;;;;2.62;2.35;;;;;;;;;;143730;599;46022;-88
2021/09/24 02:55:37;;;;;;;3.58;2.15;;;;;;;;;;143736;647;47018;-87
2021/09/24 02:58:05;;;;;;;4.07;2.15;;;;;;;;;;143736;567;46020;-89
2021/09/24 03:00:32;;;;;;;2.85;2.50;;;;;;;;;;143734;636;46018;-88
2021/09/24 03:02:59;;;;;;;3.33;2.47;;;;;;;;;;143734;575;46010;-88
2021/09/24 03:05:28;;;;;;;3.92;2.47;;;;;;;;;;143733;722;46019;-89
2021/09/24 03:07:55;;;;;;;4.70;2.55;;;;;;;;;;143738;580;46022;-89
2021/09/24 03:10:22;;;;;;;4.70;2.80;;;;;;;;;;143732;570;47019;-87
2021/09/24 03:12:49;;;;;;;5.20;3.35;;;;;;;;;;143733;653;46010;-89
2021/09/24 03:15:15;;;;;;;5.47;2.60;;;;;;;;;;143734;627;46018;-89
2021/09/24 03:17:42;;;;;;;4.50;2.65;;;;;;;;;;143736;603;46011;-90
2021/09/24 03:20:10;;;;;;;4.53;2.45;;;;;;;;;;143733;586;47021;-89
2021/09/24 03:22:37;;;;;;;2.87;2.58;;;;;;;;;;143732;593;46916;-88
2021/09/24 03:25:06;;;;;;;4.95;2.87;;;;;;;;;;143734;632;47018;-86
2021/09/24 03:27:36;;;;;;;5.07;2.92;;;;;;;;;;143736;593;46010;-89
2021/09/24 03:30:06;;;;;;;5.70;2.50;;;;;;;;;;143733;601;46046;-90
2021/09/24 03:32:34;;;;;;;8.98;3.22;;;;;;;;;;143733;621;46022;-89
2021/09/24 03:35:02;;;;;;;3.05;2.50;;;;;;;;;;143734;739;47019;-88
2021/09/24 03:37:29;;;;;;;4.20;2.92;;;;;;;;;;143736;646;46010;-89
2021/09/24 03:39:56;;;;;;;5.95;2.70;;;;;;;;;;143733;666;47020;-88
2021/09/24 03:42:23;;;;;;;4.12;2.60;;;;;;;;;;143735;565;46010;-89
2021/09/24 03:44:49;;;;;;;4.87;2.60;;;;;;;;;;143735;635;46018;-89
2021/09/24 03:47:16;;;;;;;6.12;3.22;;;;;;;;;;143739;646;46022;-89
2021/09/24 03:49:43;;;;;;;10.27;3.60;;;;;;;;;;143735;638;47018;-88
2021/09/24 03:52:10;;;;;;;5.97;3.25;;;;;;;;;;143736;710;46022;-88
2021/09/24 03:54:37;;;;;;;3.92;2.92;;;;;;;;;;143734;619;47018;-87
2021/09/24 03:57:04;;;;;;;4.43;3.03;;;;;;;;;;143736;664;46020;-88
2021/09/24 03:59:31;;;;;;;3.37;2.95;;;;;;;;;;143735;680;47020;-89
2021/09/24 04:01:59;;;;;;;4.97;2.60;;;;;;;;;;143734;649;46010;-89
2021/09/24 04:04:26;;;;;;;6.72;3.72;;;;;;;;;;143734;678;46019;-89
2021/09/24 04:06:53;;;;;;;8.57;2.78;;;;;;;;;;143736;661;46020;-91
2021/09/24 04:09:20;;;;;;;3.58;3.15;;;;;;;;;;143733;720;47020;-89
2021/09/24 04:11:47;;;;;;;4.12;2.60;;;;;;;;;;143736;680;46012;-90
2021/09/24 04:14:14;;;;;;;10.65;4.18;;;;;;;;;;143734;564;47018;-91
2021/09/24 04:16:40;;;;;;;6.28;3.22;;;;;;;;;;143736;572;46010;-90
2021/09/24 04:19:09;;;;;;;6.90;3.55;;;;;;;;;;143734;572;46013;-91
2021/09/24 04:21:35;;;;;;;5.78;2.25;;;;;;;;;;143736;576;46010;-89
2021/09/24 04:24:04;;;;;;;4.15;2.50;;;;;;;;;;143735;598;47018;-89
2021/09/24 04:26:30;;;;;;;3.50;2.87;;;;;;;;;;143739;644;46022;-91
2021/09/24 04:28:57;;;;;;;4.03;3.12;;;;;;;;;;143733;621;46908;-89
2021/09/24 04:31:24;;;;;;;4.15;3.10;;;;;;;;;;143732;655;46012;-90
2021/09/24 04:33:50;;;;;;;6.15;3.17;;;;;;;;;;143735;731;46019;-92
2021/09/24 04:36:17;;;;;;;5.68;3.35;;;;;;;;;;143735;659;46012;-90
2021/09/24 04:39:01;;;;;;;;;;;;;;;;;;;;;
2021/09/24 04:41:34;;;;;;;13.30;4.40;;;;;;;;;;143737;599;46023;-91
2021/09/24 04:44:01;;;;;;;14.65;3.70;;;;;;;;;;143736;612;47016;-90
2021/09/24 04:46:28;;;;;;;10.52;4.10;;;;;;;;;;143737;586;46021;-88
2021/09/24 04:48:54;;;;;;;7.95;3.53;;;;;;;;;;143734;620;46012;-87
2021/09/24 04:51:21;;;;;;;11.00;2.92;;;;;;;;;;143734;592;46916;-88
2021/09/24 04:53:48;;;;;;;6.93;3.03;;;;;;;;;;143734;584;47016;-89
2021/09/24 04:56:14;;;;;;;11.50;3.95;;;;;;;;;;143736;581;46010;-89
2021/09/24 04:58:42;;;;;;;15.52;3.85;;;;;;;;;;143734;579;47018;-86
2021/09/24 05:01:08;;;;;;;7.68;3.45;;;;;;;;;;143735;587;46022;-88
2021/09/24 05:03:37;;;;;;;12.10;3.60;;;;;;;;;;143736;711;46019;-88
2021/09/24 05:06:04;;;;;;;8.80;3.40;;;;;;;;;;143737;566;46010;-88
2021/09/24 05:08:30;;;;;;;5.93;3.17;;;;;;;;;;143737;618;46012;-88
2021/09/24 05:10:57;;;;;;;4.93;3.55;;;;;;;;;;143735;718;46010;-87
2021/09/24 05:13:23;;;;;;;10.98;4.43;;;;;;;;;;143738;590;46018;-88
2021/09/24 05:15:50;;;;;;;8.73;4.65;;;;;;;;;;143737;570;46022;-88
2021/09/24 05:18:17;;;;;;;14.50;5.53;;;;;;;;;;143735;722;47019;-88
2021/09/24 05:20:43;;;;;;;15.40;5.55;;;;;;;;;;143733;583;46012;-87
2021/09/24 05:23:10;;;;;;;19.05;4.05;;;;;;;;;;143735;579;47018;-86
2021/09/24 05:25:37;;;;;;;9.55;4.47;;;;;;;;;;143738;738;46010;-87
2021/09/24 05:28:04;;;;;;;5.87;3.33;;;;;;;;;;143733;708;47020;-88
2021/09/24 05:30:31;;;;;;;7.53;3.20;;;;;;;;;;143735;573;47022;-89
2021/09/24 05:32:58;;;;;;;10.80;3.70;;;;;;;;;;143736;619;46027;-89
2021/09/24 05:35:25;;;;;;;7.85;3.65;;;;;;;;;;143738;582;46010;-86
2021/09/24 05:37:52;;;;;;;5.78;4.15;;;;;;;;;;143733;585;47020;-87
2021/09/24 05:40:19;;;;;;;11.75;4.15;;;;;;;;;;143736;652;46012;-90
2021/09/24 05:42:46;;;;;;;9.98;4.00;;;;;;;;;;143730;657;47018;-87
2021/09/24 05:45:14;;;;;;;13.02;4.12;;;;;;;;;;143735;572;47010;-89
2021/09/24 05:47:42;;;;;;;13.35;3.58;;;;;;;;;;143733;584;47019;-87
2021/09/24 05:50:13;;;;;;;10.15;4.28;;;;;;;;;;143736;579;46010;-89
2021/09/24 05:52:46;;;;;;;5.57;3.45;;;;;;;;;;143735;586;46018;-88
2021/09/24 05:55:14;;;;;;;21.15;3.83;;;;;;;;;;143738;655;46051;-88
2021/09/24 05:57:41;;;;;;;8.70;3.95;;;;;;;;;;143734;682;47021;-89
2021/09/24 06:00:10;;;;;;;4.82;3.30;;;;;;;;;;143733;585;46916;-91
2021/09/24 06:02:39;;;;;;;6.72;3.35;;;;;;;;;;143736;586;46019;-88
2021/09/24 06:05:06;;;;;;;5.90;3.45;;;;;;;;;;143735;650;47020;-90
2021/09/24 06:07:32;;;;;;;8.43;2.72;;;;;;;;;;143733;626;47020;-90
2021/09/24 06:09:59;;;;;;;4.85;3.05;;;;;;;;;;143732;633;46022;-88
2021/09/24 06:12:26;;;;;;;4.95;2.95;;;;;;;;;;143736;584;46018;-86
2021/09/24 06:14:53;;;;;;;6.95;2.75;;;;;;;;;;143736;588;46022;-89
2021/09/24 06:17:19;;;;;;;4.43;2.95;;;;;;;;;;143732;651;47020;-88
2021/09/24 06:19:46;;;;;;;9.45;2.30;;;;;;;;;;143734;570;46010;-87
2021/09/24 06:22:15;;;;;;;6.85;3.10;;;;;;;;;;143736;569;46018;-88
2021/09/24 06:24:45;;;;;;;6.97;3.25;;;;;;;;;;143738;616;46010;-88
2021/09/24 06:27:15;;;;;;;9.25;3.62;;;;;;;;;;143732;620;47018;-88
2021/09/24 06:29:44;;;;;;;7.30;3.70;;;;;;;;;;143734;726;46010;-88
2021/09/24 06:32:11;;;;;;;8.77;3.97;;;;;;;;;;143735;608;47016;-90
2021/09/24 06:34:38;;;;;;;12.77;4.37;;;;;;;;;;143737;611;46010;-89
2021/09/24 06:37:05;;;;;;;13.90;4.75;;;;;;;;;;143733;565;47020;-87
2021/09/24 06:39:32;;;;;;;10.55;5.15;;;;;;;;;;143735;580;46022;-88
2021/09/24 06:41:59;;;;;;;8.02;4.95;;;;;;;;;;143736;590;46018;-89
2021/09/24 06:44:25;;;;;;;11.63;5.20;;;;;;;;;;143739;636;46022;-87
2021/09/24 06:46:53;;;;;;;8.30;5.40;;;;;;;;;;143735;650;47020;-89
2021/09/24 06:49:24;;;;;;;11.20;5.50;;;;;;;;;;143736;589;46023;-89
2021/09/24 06:51:52;;;;;;;24.87;5.75;;;;;;;;;;143734;570;47018;-89
2021/09/24 06:54:19;;;;;;;21.67;6.50;;;;;;;;;;143735;617;47023;-88
2021/09/24 06:56:46;;;;;;;12.82;5.78;;;;;;;;;;143732;592;47021;-90
2021/09/24 06:59:14;;;;;;;17.00;4.97;;;;;;;;;;143732;633;46916;-89
2021/09/24 07:01:44;;;;;;;9.75;4.35;;;;;;;;;;143739;607;46019;-88
2021/09/24 07:04:15;;;;;;;8.95;3.60;;;;;;;;;;143738;605;46020;-89
2021/09/24 07:06:42;;;;;;;7.10;3.45;;;;;;;;;;143732;672;47020;-89
2021/09/24 07:09:08;;;;;;;15.30;3.78;;;;;;;;;;143737;597;46022;-89
2021/09/24 07:11:36;;;;;;;15.63;3.85;;;;;;;;;;143734;656;47018;-87
2021/09/24 07:14:08;;;;;;;7.80;3.42;;;;;;;;;;143736;612;46010;-87
2021/09/24 07:16:38;;;;;;;7.05;2.83;;;;;;;;;;143733;613;47019;-89
2021/09/24 07:19:06;;;;;;;5.12;3.33;;;;;;;;;;143733;611;46010;-90
2021/09/24 07:21:33;;;;;;;10.18;3.37;;;;;;;;;;143734;575;46018;-88
2021/09/24 07:24:01;;;;;;;12.43;3.58;;;;;;;;;;143737;639;46022;-89
2021/09/24 07:26:28;;;;;;;3.35;3.00;;;;;;;;;;143734;664;47018;-89
2021/09/24 07:28:55;;;;;;;4.03;2.50;;;;;;;;;;143735;610;47022;-88
2021/09/24 07:31:24;;;;;;;3.25;2.65;;;;;;;;;;143738;658;46018;-88
2021/09/24 07:33:52;;;;;;;4.15;2.30;;;;;;;;;;143736;605;46020;-89
2021/09/24 07:36:19;;;;;;;5.20;2.45;;;;;;;;;;143732;566;47020;-88
2021/09/24 07:38:48;;;;;;;3.25;2.45;;;;;;;;;;143735;686;46023;-87
2021/09/24 07:41:16;;;;;;;6.78;2.50;;;;;;;;;;143733;802;46018;-87
2021/09/24 07:43:44;;;;;;;13.68;3.33;;;;;;;;;;143738;570;46010;-90
2021/09/24 07:46:10;;;;;;;2.35;1.85;;;;;;;;;;143733;585;47019;-87
2021/09/24 07:48:40;;;;;;;5.15;1.62;;;;;;;;;;143733;586;46010;-88
2021/09/24 07:51:07;;;;;;;7.00;2.37;;;;;;;;;;143736;569;47018;-89
2021/09/24 07:53:37;;;;;;;3.45;2.10;;;;;;;;;;143737;603;46010;-89
2021/09/24 07:56:07;;;;;;;4.47;2.12;;;;;;;;;;143736;606;46018;-89
2021/09/24 07:58:38;;;;;;;3.08;2.08;;;;;;;;;;143734;621;46010;-90
2021/09/24 08:01:08;;;;;;;8.27;2.20;;;;;;;;;;143737;652;47019;-88
2021/09/24 08:03:36;;;;;;;2.70;1.67;;;;;;;;;;143734;607;46022;-87
2021/09/24 08:06:05;;;;;;;2.58;1.80;;;;;;;;;;143734;570;47018;-88
2021/09/24 08:08:32;;;;;;;6.45;2.12;;;;;;;;;;143734;635;46012;-87
2021/09/24 08:10:59;;;;;;;3.53;2.10;;;;;;;;;;143732;599;47019;-88
2021/09/24 08:13:26;;;;;;;2.95;2.20;;;;;;;;;;143734;620;46022;-87
2021/09/24 08:15:54;;;;;;;11.02;2.92;;;;;;;;;;143733;574;46019;-86
2021/09/24 08:18:23;;;;;;;3.80;1.92;;;;;;;;;;143731;569;46010;-87
2021/09/24 08:20:54;;;;;;;6.32;2.33;;;;;;;;;;143732;576;46018;-88
2021/09/24 08:23:23;;;;;;;2.67;1.92;;;;;;;;;;143735;579;46010;-87
2021/09/24 08:25:49;;;;;;;3.80;2.15;;;;;;;;;;143728;639;47021;-87
2021/09/24 08:28:16;;;;;;;7.78;2.72;;;;;;;;;;143733;685;46010;-88
2021/09/24 08:30:43;;;;;;;2.75;2.00;;;;;;;;;;143733;572;47018;-88
2021/09/24 08:33:14;;;;;;;4.43;2.28;;;;;;;;;;143732;581;46012;-86
2021/09/24 08:35:41;;;;;;;3.12;2.05;;;;;;;;;;143732;611;47018;-89
2021/09/24 08:38:08;;;;;;;3.30;2.33;;;;;;;;;;143732;635;46023;-86
2021/09/24 08:40:36;;;;;;;14.98;3.25;;;;;;;;;;143733;629;46042;-85
2021/09/24 08:43:07;;;;;;;5.03;2.47;;;;;;;;;;143733;591;46020;-88
2021/09/24 08:45:34;;;;;;;4.32;2.10;;;;;;;;;;143734;605;46019;-88
2021/09/24 08:48:05;;;;;;;4.78;2.50;;;;;;;;;;143733;602;46917;-86
2021/09/24 08:50:36;;;;;;;2.47;1.73;;;;;;;;;;143733;599;46018;-87
2021/09/24 08:53:04;;;;;;;3.85;2.10;;;;;;;;;;143735;586;46023;-88
2021/09/24 08:55:30;;;;;;;4.43;2.53;;;;;;;;;;143733;575;47021;-90
2021/09/24 08:57:59;;;;;;;4.30;1.83;;;;;;;;;;143731;664;46010;-88
2021/09/24 09:00:27;;;;;;;6.78;2.05;;;;;;;;;;143731;594;47018;-89
2021/09/24 09:03:08;;;;;;;2.67;1.75;;;;;;;;;;143736;655;46010;-88
2021/09/24 09:05:44;;;;;;;3.05;1.90;;;;;;;;;;143733;607;46043;-86
2021/09/24 09:08:17;;;;;;;8.15;2.05;;;;;;;;;;143731;613;46011;-87
2021/09/24 09:10:59;;;;;;;10.93;2.35;;;;;;;;;;143733;616;47018;-87
2021/09/24 09:13:32;;;;;;;3.72;1.75;;;;;;;;;;143738;608;46010;-88
2021/09/24 09:16:07;;;;;;;6.00;2.25;;;;;;;;;;143731;613;47020;-88
2021/09/24 09:18:39;;;;;;;2.62;1.95;;;;;;;;;;143732;582;46010;-89
2021/09/24 09:21:09;;;;;;;7.20;2.10;;;;;;;;;;143732;586;46018;-90
2021/09/24 09:23:37;;;;;;;4.90;3.40;;;;;;;;;;143736;567;47022;-87
2021/09/24 09:26:08;;;;;;;4.18;2.70;;;;;;;;;;143730;604;47021;-90
2021/09/24 09:28:38;;;;;;;6.12;2.22;;;;;;;;;;143733;569;46010;-86
2021/09/24 09:31:26;;;;;;;4.45;2.30;;;;;;;;;;143734;730;46019;-89
2021/09/24 09:33:55;;;;;;;5.90;2.40;;;;;;;;;;143734;565;46020;-88
2021/09/24 09:36:31;;;;;;;3.65;2.40;;;;;;;;;;143733;678;47018;-88
2021/09/24 09:38:58;;;;;;;5.90;2.10;;;;;;;;;;143731;586;46023;-89
2021/09/24 09:41:29;;;;;;;4.65;2.53;;;;;;;;;;143733;566;47018;-88
2021/09/24 09:43:59;;;;;;;7.87;2.53;;;;;;;;;;143734;669;46020;-88
2021/09/24 09:46:32;;;;;;;3.22;2.22;;;;;;;;;;143732;598;46021;-87
2021/09/24 09:48:59;;;;;;;;;;;;;;;;;;143737;980;46022;-87
2021/09/24 09:51:27;;;;;;;2.70;1.77;;;;;;;;;;143736;648;47018;-87
2021/09/24 09:53:53;;;;;;;2.92;1.90;;;;;;;;;;143735;601;46012;-89
2021/09/24 09:56:21;;;;;;;6.55;2.03;;;;;;;;;;143729;570;48018;-88
2021/09/24 09:58:48;;;;;;;6.12;3.17;;;;;;;;;;143735;584;45917;-87
2021/09/24 10:01:17;;;;;;;3.72;2.42;;;;;;;;;;143731;571;47019;-88
2021/09/24 10:03:51;;;;;;;4.82;2.37;;;;;;;;;;143733;569;47023;-89
2021/09/24 10:06:26;;;;;;;5.57;1.80;;;;;;;;;;143732;587;47018;-87
2021/09/24 10:09:03;;;;;;;5.15;2.30;;;;;;;;;;143733;637;46013;-88
2021/09/24 10:11:39;;;;;;;4.95;1.95;;;;;;;;;;143733;575;46018;-85
2021/09/24 10:14:10;;;;;;;4.57;1.92;;;;;;;;;;143732;615;46012;-86
2021/09/24 10:16:46;;;;;;;5.72;2.28;;;;;;;;;;143730;598;47021;-85
2021/09/24 10:19:13;;;;;;;6.22;2.28;;;;;;;;;;143734;632;46022;-87
2021/09/24 10:21:41;;;;;;;5.68;2.33;;;;;;;;;;143738;565;45018;-88
2021/09/24 10:24:08;;;;;;;4.72;2.20;;;;;;;;;;143735;649;46013;-87
2021/09/24 10:26:47;;;;;;;2.65;1.90;;;;;;;;;;143734;569;46018;-87
2021/09/24 10:29:19;;;;;;;4.78;2.12;;;;;;;;;;143733;573;46022;-89
2021/09/24 10:31:50;;;;;;;5.83;1.97;;;;;;;;;;143734;579;46019;-86
2021/09/24 10:34:28;;;;;;;2.53;1.70;;;;;;;;;;143734;564;46020;-87
2021/09/24 10:36:56;;;;;;;5.22;2.20;;;;;;;;;;143735;607;46020;-87
2021/09/24 10:39:37;;;;;;;9.45;2.60;;;;;;;;;;143732;633;46013;-87
2021/09/24 10:42:40;;;;;;;4.37;2.20;;;;;;;;;;143735;569;46018;-87
2021/09/24 10:45:31;;;;;;;4.93;1.92;;;;;;;;;;143733;571;46013;-87
2021/09/24 10:48:25;;;;;;;2.42;1.77;;;;;;;;;;143733;577;46021;-87
2021/09/24 10:51:03;;;;;;;11.43;2.45;;;;;;;;;;143732;635;46012;-86
2021/09/24 10:53:42;;;;;;;3.85;2.30;;;;;;;;;;143733;649;47019;-86
2021/09/24 10:56:30;;;;;;;5.62;2.12;;;;;;;;;;143736;579;46020;-87
2021/09/24 10:58:59;;;;;;;4.12;2.17;;;;;;;;;;143735;564;46014;-83
2021/09/24 11:01:36;;;;;;;2.62;1.87;;;;;;;;;;143733;591;46023;-82
2021/09/24 11:04:12;;;;;;;4.80;2.20;;;;;;;;;;143737;582;46018;-88
2021/09/24 11:06:50;;;;;;;3.80;2.40;;;;;;;;;;143738;564;46021;-82
2021/09/24 11:09:22;;;;;;;3.03;2.40;;;;;;;;;;143734;577;46021;-83
2021/09/24 11:12:03;;;;;;;3.90;2.08;;;;;;;;;;143736;646;45916;-83
2021/09/24 11:14:36;;;;;;;3.78;2.20;;;;;;;;;;143734;569;47018;-82
2021/09/24 11:17:13;;;;;;;2.90;1.80;;;;;;;;;;143738;627;45023;-80
2021/09/24 11:19:50;;;;;;;5.15;2.30;;;;;;;;;;143737;659;45020;-80
2021/09/24 11:22:40;;;;;;;2.45;1.92;;;;;;;;;;143737;570;45033;-82
2021/09/24 11:25:12;;;;;;;3.97;2.08;;;;;;;;;;143735;601;46018;-81
2021/09/24 11:27:48;;;;;;;5.32;2.50;;;;;;;;;;143739;608;46012;-81
2021/09/24 11:30:26;;;;;;;4.70;1.95;;;;;;;;;;143730;583;47020;-86
2021/09/24 11:33:18;;;;;;;2.28;1.92;;;;;;;;;;143734;571;46012;-86
2021/09/24 11:35:48;;;;;;;5.07;2.20;;;;;;;;;;143735;682;45018;-86
2021/09/24 11:38:20;;;;;;;2.78;1.90;;;;;;;;;;143734;587;46021;-85
2021/09/24 11:41:05;;;;;;;12.13;2.22;;;;;;;;;;143732;613;47020;-86
2021/09/24 11:43:38;;;;;;;5.37;1.90;;;;;;;;;;143733;587;46020;-88
2021/09/24 11:46:23;;;;;;;4.47;2.10;;;;;;;;;;143736;571;46021;-86
2021/09/24 11:48:53;;;;;;;3.12;2.08;;;;;;;;;;143735;573;46018;-87
2021/09/24 11:51:26;;;;;;;3.12;1.95;;;;;;;;;;143731;661;47020;-87
2021/09/24 11:53:58;;;;;;;4.75;2.47;;;;;;;;;;143731;620;46012;-87
2021/09/24 11:56:38;;;;;;;4.53;2.17;;;;;;;;;;143734;576;46018;-87
2021/09/24 11:59:11;;;;;;;4.72;2.60;;;;;;;;;;143734;574;46013;-89
2021/09/24 12:01:46;;;;;;;3.22;2.50;;;;;;;;;;143731;610;46021;-87
2021/09/24 12:04:29;;;;;;;2.95;2.40;;;;;;;;;;143733;590;46012;-87
2021/09/24 12:07:11;;;;;;;7.93;2.50;;;;;;;;;;143733;583;46019;-87
2021/09/24 12:09:38;;;;;;;2.60;2.33;;;;;;;;;;143734;572;46020;-87
2021/09/24 12:12:20;;;;;;;3.58;2.72;;;;;;;;;;143730;649;47020;-88
2021/09/24 12:15:13;;;;;;;2.17;1.98;;;;;;;;;;143732;569;46013;-90
2021/09/24 12:17:39;;;;;;;5.15;2.08;;;;;;;;;;143735;591;46018;-87
2021/09/24 12:20:07;;;;;;;3.17;2.12;;;;;;;;;;143734;674;46020;-88
2021/09/24 12:22:34;;;;;;;3.87;1.77;;;;;;;;;;143730;571;47020;-88
2021/09/24 12:25:01;;;;;;;2.58;1.73;;;;;;;;;;143733;581;46014;-88
2021/09/24 12:27:33;;;;;;;5.95;2.00;;;;;;;;;;143733;569;47018;-87
2021/09/24 12:30:17;;;;;;;5.55;1.60;;;;;;;;;;143736;616;45023;-89
2021/09/24 12:32:44;;;;;;;3.08;2.03;;;;;;;;;;143731;586;47020;-88
2021/09/24 12:35:16;;;;;;;1.92;1.70;;;;;;;;;;143732;573;46022;-88
2021/09/24 12:37:45;;;;;;;3.25;2.10;;;;;;;;;;143733;583;46019;-87
2021/09/24 12:40:19;;;;;;;7.10;1.98;;;;;;;;;;143734;591;46020;-88
2021/09/24 12:42:55;;;;;;;2.60;2.15;;;;;;;;;;143730;570;47020;-87
2021/09/24 12:45:28;;;;;;;2.67;2.28;;;;;;;;;;143732;587;46013;-87
2021/09/24 12:48:15;;;;;;;5.07;2.67;;;;;;;;;;143733;564;46044;-86
2021/09/24 12:50:47;;;;;;;5.78;1.80;;;;;;;;;;143734;590;46012;-89
2021/09/24 12:53:18;;;;;;;2.72;1.52;;;;;;;;;;143733;575;46015;-89
2021/09/24 12:55:46;;;;;;;2.80;1.60;;;;;;;;;;143732;659;46922;-89
2021/09/24 12:58:14;;;;;;;2.95;2.30;;;;;;;;;;143736;620;45034;-89
2021/09/24 13:00:44;;;;;;;3.25;2.05;;;;;;;;;;143734;588;46012;-88
2021/09/24 13:03:11;;;;;;;3.17;2.12;;;;;;;;;;143732;592;46020;-88
2021/09/24 13:05:38;;;;;;;2.17;1.83;;;;;;;;;;143735;634;46012;-87
2021/09/24 13:08:05;;;;;;;2.65;1.75;;;;;;;;;;143733;609;46019;-87
2021/09/24 13:10:32;;;;;;;4.47;1.98;;;;;;;;;;143735;564;47020;-88
2021/09/24 13:12:58;;;;;;;2.87;1.70;;;;;;;;;;143729;642;47020;-87
2021/09/24 13:15:25;;;;;;;2.33;1.73;;;;;;;;;;143733;617;46013;-88
2021/09/24 13:17:55;;;;;;;6.22;1.70;;;;;;;;;;143730;569;47018;-88
2021/09/24 13:20:22;;;;;;;2.20;1.92;;;;;;;;;;143734;565;46022;-86
2021/09/24 13:22:49;;;;;;;8.02;1.77;;;;;;;;;;143734;618;46043;-88
2021/09/24 13:25:15;;;;;;;4.55;1.55;;;;;;;;;;143732;564;46012;-86
2021/09/24 13:27:42;;;;;;;5.80;1.80;;;;;;;;;;143733;590;47018;-87
2021/09/24 13:30:10;;;;;;;2.40;1.42;;;;;;;;;;143735;577;46012;-88
2021/09/24 13:32:38;;;;;;;2.87;1.65;;;;;;;;;;143732;571;47020;-86
2021/09/24 13:35:07;;;;;;;3.05;1.73;;;;;;;;;;143734;565;46012;-90
2021/09/24 13:37:38;;;;;;;3.00;2.00;;;;;;;;;;143731;564;47019;-87
2021/09/24 13:40:07;;;;;;;3.55;2.00;;;;;;;;;;143734;569;46022;-87
2021/09/24 13:42:33;;;;;;;3.00;1.90;;;;;;;;;;143730;563;47020;-87
2021/09/24 13:45:00;;;;;;;3.90;2.05;;;;;;;;;;143732;610;46013;-86
2021/09/24 13:47:27;;;;;;;2.75;2.08;;;;;;;;;;143733;591;47018;-86
2021/09/24 13:49:54;;;;;;;4.47;1.98;;;;;;;;;;143737;652;46012;-87
2021/09/24 13:52:22;;;;;;;4.12;1.62;;;;;;;;;;143732;622;47019;-89
2021/09/24 13:54:48;;;;;;;4.85;1.65;;;;;;;;;;143733;591;46012;-88
2021/09/24 13:57:15;;;;;;;2.00;1.67;;;;;;;;;;143736;575;46018;-87
2021/09/24 13:59:42;;;;;;;5.82;1.75;;;;;;;;;;143734;580;46013;-86
2021/09/24 14:02:08;;;;;;;5.00;2.05;;;;;;;;;;143731;607;46021;-86
2021/09/24 14:04:35;;;;;;;4.72;1.85;;;;;;;;;;143731;572;46918;-86
2021/09/24 14:07:03;;;;;;;5.68;2.37;;;;;;;;;;143734;593;47016;-88
2021/09/24 14:09:29;;;;;;;4.65;1.87;;;;;;;;;;143734;577;46012;-87
2021/09/24 14:11:57;;;;;;;3.30;1.77;;;;;;;;;;143732;577;47020;-88
2021/09/24 14:14:24;;;;;;;4.22;1.98;;;;;;;;;;143734;587;46020;-87
2021/09/24 14:16:51;;;;;;;3.00;2.30;;;;;;;;;;143734;564;46018;-87
2021/09/24 14:19:17;;;;;;;4.90;2.83;;;;;;;;;;143738;577;46012;-87
2021/09/24 14:21:44;;;;;;;4.22;1.83;;;;;;;;;;143732;584;47020;-88
2021/09/24 14:24:11;;;;;;;3.50;1.77;;;;;;;;;;143734;723;46022;-87
2021/09/24 14:26:38;;;;;;;3.20;1.90;;;;;;;;;;143735;582;46018;-88
2021/09/24 14:29:04;;;;;;;15.85;2.28;;;;;;;;;;143736;579;46046;-87
2021/09/24 14:31:31;;;;;;;2.87;1.90;;;;;;;;;;143732;588;47020;-88
2021/09/24 14:33:58;;;;;;;2.25;1.80;;;;;;;;;;143734;575;46022;-90
2021/09/24 14:36:25;;;;;;;3.95;1.98;;;;;;;;;;143737;596;46018;-87
2021/09/24 14:38:52;;;;;;;5.18;2.60;;;;;;;;;;143736;605;47022;-91
2021/09/24 14:41:19;;;;;;;3.78;2.00;;;;;;;;;;143733;570;47018;-88
2021/09/24 14:43:45;;;;;;;4.53;1.77;;;;;;;;;;143732;575;46013;-89
2021/09/24 14:46:12;;;;;;;5.35;2.05;;;;;;;;;;143735;593;46019;-86
2021/09/24 14:48:39;;;;;;;5.47;1.98;;;;;;;;;;143736;577;46012;-87
2021/09/24 14:51:05;;;;;;;3.47;1.83;;;;;;;;;;143732;607;47020;-89
2021/09/24 14:53:32;;;;;;;3.05;2.20;;;;;;;;;;143734;565;46012;-88
2021/09/24 14:55:59;;;;;;;5.18;1.67;;;;;;;;;;143732;569;47018;-88